sensor_id;sensor_type;location;lat;lon;timestamp;temperature;humidity
24326;DHT22;12448;45.532;5.290;2023-12-20T00:02:04;5.50;99.90
24326;DHT22;12448;45.532;5.290;2023-12-20T00:04:33;5.60;99.90
24326;DHT22;12448;45.532;5.290;2023-12-20T00:07:04;5.60;99.90
24326;DHT22;12448;45.532;5.290;2023-12-20T00:09:30;5.60;99.90
24326;DHT22;12448;45.532;5.290;2023-12-20T00:11:57;5.70;99.90
24326;DHT22;12448;45.532;5.290;2023-12-20T00:14:26;5.70;99.90
24326;DHT22;12448;45.532;5.290;2023-12-20T00:16:54;5.70;99.90
24326;DHT22;12448;45.532;5.290;2023-12-20T00:19:20;5.70;99.90
24326;DHT22;12448;45.532;5.290;2023-12-20T00:21:46;6.00;99.90
24326;DHT22;12448;45.532;5.290;2023-12-20T00:24:15;5.70;99.90
24326;DHT22;12448;45.532;5.290;2023-12-20T00:26:52;5.70;99.90
24326;DHT22;12448;45.532;5.290;2023-12-20T00:29:21;5.70;99.90
24326;DHT22;12448;45.532;5.290;2023-12-20T00:31:47;5.70;99.90
24326;DHT22;12448;45.532;5.290;2023-12-20T00:34:12;5.70;99.90
24326;DHT22;12448;45.532;5.290;2023-12-20T00:36:44;5.70;99.90
24326;DHT22;12448;45.532;5.290;2023-12-20T00:39:10;5.70;99.90
24326;DHT22;12448;45.532;5.290;2023-12-20T00:41:36;5.70;99.90
24326;DHT22;12448;45.532;5.290;2023-12-20T00:44:02;5.80;99.90
24326;DHT22;12448;45.532;5.290;2023-12-20T00:46:31;5.80;99.90
24326;DHT22;12448;45.532;5.290;2023-12-20T00:49:03;5.80;99.90
24326;DHT22;12448;45.532;5.290;2023-12-20T00:51:29;5.80;99.90
24326;DHT22;12448;45.532;5.290;2023-12-20T00:54:01;5.90;99.90
24326;DHT22;12448;45.532;5.290;2023-12-20T00:56:29;5.90;99.90
24326;DHT22;12448;45.532;5.290;2023-12-20T00:58:58;6.00;99.90
24326;DHT22;12448;45.532;5.290;2023-12-20T01:01:27;5.80;99.90
24326;DHT22;12448;45.532;5.290;2023-12-20T01:04:06;5.70;99.90
24326;DHT22;12448;45.532;5.290;2023-12-20T01:06:40;5.70;99.90
24326;DHT22;12448;45.532;5.290;2023-12-20T01:09:06;5.70;99.90
24326;DHT22;12448;45.532;5.290;2023-12-20T01:11:37;5.60;99.90
24326;DHT22;12448;45.532;5.290;2023-12-20T01:14:06;5.60;99.90
24326;DHT22;12448;45.532;5.290;2023-12-20T01:16:32;5.60;99.90
24326;DHT22;12448;45.532;5.290;2023-12-20T01:19:00;5.60;99.90
24326;DHT22;12448;45.532;5.290;2023-12-20T01:21:26;5.70;99.90
24326;DHT22;12448;45.532;5.290;2023-12-20T01:23:52;5.70;99.90
24326;DHT22;12448;45.532;5.290;2023-12-20T01:26:21;5.80;99.90
24326;DHT22;12448;45.532;5.290;2023-12-20T01:28:47;5.80;99.90
24326;DHT22;12448;45.532;5.290;2023-12-20T01:31:16;5.60;99.90
24326;DHT22;12448;45.532;5.290;2023-12-20T01:33:45;5.90;99.90
24326;DHT22;12448;45.532;5.290;2023-12-20T01:36:11;5.90;99.90
24326;DHT22;12448;45.532;5.290;2023-12-20T01:38:37;6.00;99.90
24326;DHT22;12448;45.532;5.290;2023-12-20T01:41:03;6.00;99.90
24326;DHT22;12448;45.532;5.290;2023-12-20T01:43:31;6.00;99.90
24326;DHT22;12448;45.532;5.290;2023-12-20T01:46:01;6.10;99.90
24326;DHT22;12448;45.532;5.290;2023-12-20T01:48:28;6.00;99.90
24326;DHT22;12448;45.532;5.290;2023-12-20T01:51:02;6.10;99.90
24326;DHT22;12448;45.532;5.290;2023-12-20T01:53:34;6.10;99.90
24326;DHT22;12448;45.532;5.290;2023-12-20T01:56:04;6.10;99.90
24326;DHT22;12448;45.532;5.290;2023-12-20T01:58:31;6.00;99.90
24326;DHT22;12448;45.532;5.290;2023-12-20T02:00:57;6.10;99.90
24326;DHT22;12448;45.532;5.290;2023-12-20T02:06:20;6.10;99.90
24326;DHT22;12448;45.532;5.290;2023-12-20T02:08:48;6.10;99.90
24326;DHT22;12448;45.532;5.290;2023-12-20T02:11:20;6.00;99.90
24326;DHT22;12448;45.532;5.290;2023-12-20T02:13:57;5.90;99.90
24326;DHT22;12448;45.532;5.290;2023-12-20T02:16:23;5.90;99.90
24326;DHT22;12448;45.532;5.290;2023-12-20T02:18:49;5.90;99.90
24326;DHT22;12448;45.532;5.290;2023-12-20T02:21:15;5.90;99.90
24326;DHT22;12448;45.532;5.290;2023-12-20T02:23:47;5.90;99.90
24326;DHT22;12448;45.532;5.290;2023-12-20T02:26:13;5.90;99.90
24326;DHT22;12448;45.532;5.290;2023-12-20T02:28:48;5.80;99.90
24326;DHT22;12448;45.532;5.290;2023-12-20T02:31:14;5.80;99.90
24326;DHT22;12448;45.532;5.290;2023-12-20T02:33:43;6.00;99.90
24326;DHT22;12448;45.532;5.290;2023-12-20T02:36:23;5.80;99.90
24326;DHT22;12448;45.532;5.290;2023-12-20T02:38:51;5.90;99.90
24326;DHT22;12448;45.532;5.290;2023-12-20T02:41:19;5.90;99.90
24326;DHT22;12448;45.532;5.290;2023-12-20T02:43:45;6.10;99.90
24326;DHT22;12448;45.532;5.290;2023-12-20T02:46:12;6.00;99.90
24326;DHT22;12448;45.532;5.290;2023-12-20T02:48:39;6.00;99.90
24326;DHT22;12448;45.532;5.290;2023-12-20T02:54:01;6.10;99.90
24326;DHT22;12448;45.532;5.290;2023-12-20T02:56:29;6.10;99.90
24326;DHT22;12448;45.532;5.290;2023-12-20T02:59:01;6.10;99.90
24326;DHT22;12448;45.532;5.290;2023-12-20T03:01:56;6.10;99.90
24326;DHT22;12448;45.532;5.290;2023-12-20T03:05:13;6.10;99.90
24326;DHT22;12448;45.532;5.290;2023-12-20T03:07:42;6.10;99.90
24326;DHT22;12448;45.532;5.290;2023-12-20T03:10:08;6.10;99.90
24326;DHT22;12448;45.532;5.290;2023-12-20T03:12:37;6.10;99.90
24326;DHT22;12448;45.532;5.290;2023-12-20T03:15:10;6.20;99.90
24326;DHT22;12448;45.532;5.290;2023-12-20T03:17:38;6.10;99.90
24326;DHT22;12448;45.532;5.290;2023-12-20T03:26:10;6.20;99.90
24326;DHT22;12448;45.532;5.290;2023-12-20T03:28:42;6.20;99.90
24326;DHT22;12448;45.532;5.290;2023-12-20T03:31:16;6.20;99.90
24326;DHT22;12448;45.532;5.290;2023-12-20T03:33:47;6.20;99.90
24326;DHT22;12448;45.532;5.290;2023-12-20T03:36:16;6.20;99.90
24326;DHT22;12448;45.532;5.290;2023-12-20T03:38:45;6.20;99.90
24326;DHT22;12448;45.532;5.290;2023-12-20T03:41:14;6.20;99.90
24326;DHT22;12448;45.532;5.290;2023-12-20T03:43:42;6.20;99.90
24326;DHT22;12448;45.532;5.290;2023-12-20T03:46:30;6.20;99.90
24326;DHT22;12448;45.532;5.290;2023-12-20T03:49:00;6.20;99.90
24326;DHT22;12448;45.532;5.290;2023-12-20T03:51:26;6.20;99.90
24326;DHT22;12448;45.532;5.290;2023-12-20T03:53:54;6.20;99.90
24326;DHT22;12448;45.532;5.290;2023-12-20T03:56:20;6.30;99.90
24326;DHT22;12448;45.532;5.290;2023-12-20T03:58:46;6.30;99.90
24326;DHT22;12448;45.532;5.290;2023-12-20T04:01:15;6.20;99.90
24326;DHT22;12448;45.532;5.290;2023-12-20T04:03:44;6.30;99.90
24326;DHT22;12448;45.532;5.290;2023-12-20T04:06:21;6.30;99.90
24326;DHT22;12448;45.532;5.290;2023-12-20T04:08:55;6.30;99.90
24326;DHT22;12448;45.532;5.290;2023-12-20T04:14:56;6.30;99.90
24326;DHT22;12448;45.532;5.290;2023-12-20T04:17:35;6.30;99.90
24326;DHT22;12448;45.532;5.290;2023-12-20T04:20:17;6.80;99.90
24326;DHT22;12448;45.532;5.290;2023-12-20T04:23:23;6.30;99.90
24326;DHT22;12448;45.532;5.290;2023-12-20T04:26:11;6.30;99.90
24326;DHT22;12448;45.532;5.290;2023-12-20T04:29:26;5.80;99.90
24326;DHT22;12448;45.532;5.290;2023-12-20T04:31:52;6.20;99.90
24326;DHT22;12448;45.532;5.290;2023-12-20T04:34:20;6.20;99.90
24326;DHT22;12448;45.532;5.290;2023-12-20T04:36:46;6.20;99.90
24326;DHT22;12448;45.532;5.290;2023-12-20T04:39:18;6.20;99.90
24326;DHT22;12448;45.532;5.290;2023-12-20T04:41:49;6.20;99.90
24326;DHT22;12448;45.532;5.290;2023-12-20T04:44:30;6.20;99.90
24326;DHT22;12448;45.532;5.290;2023-12-20T04:46:58;6.10;99.90
24326;DHT22;12448;45.532;5.290;2023-12-20T04:49:27;6.10;99.90
24326;DHT22;12448;45.532;5.290;2023-12-20T04:52:03;6.10;99.90
24326;DHT22;12448;45.532;5.290;2023-12-20T04:54:34;6.10;99.90
24326;DHT22;12448;45.532;5.290;2023-12-20T04:57:00;6.00;99.90
24326;DHT22;12448;45.532;5.290;2023-12-20T04:59:34;6.00;99.90
24326;DHT22;12448;45.532;5.290;2023-12-20T05:02:03;6.00;99.90
24326;DHT22;12448;45.532;5.290;2023-12-20T05:04:35;6.00;99.90
24326;DHT22;12448;45.532;5.290;2023-12-20T05:07:06;6.00;99.90
24326;DHT22;12448;45.532;5.290;2023-12-20T05:13:33;6.10;99.90
24326;DHT22;12448;45.532;5.290;2023-12-20T05:16:05;6.20;99.90
24326;DHT22;12448;45.532;5.290;2023-12-20T05:18:36;6.20;99.90
24326;DHT22;12448;45.532;5.290;2023-12-20T05:21:44;6.20;99.90
24326;DHT22;12448;45.532;5.290;2023-12-20T05:24:21;6.20;99.90
24326;DHT22;12448;45.532;5.290;2023-12-20T05:26:53;6.20;99.90
24326;DHT22;12448;45.532;5.290;2023-12-20T05:29:23;6.20;99.90
24326;DHT22;12448;45.532;5.290;2023-12-20T05:31:52;6.10;99.90
24326;DHT22;12448;45.532;5.290;2023-12-20T05:36:57;6.10;99.90
24326;DHT22;12448;45.532;5.290;2023-12-20T05:42:12;6.10;99.90
24326;DHT22;12448;45.532;5.290;2023-12-20T05:44:41;6.10;99.90
24326;DHT22;12448;45.532;5.290;2023-12-20T05:47:20;6.10;99.90
24326;DHT22;12448;45.532;5.290;2023-12-20T05:49:48;6.10;99.90
24326;DHT22;12448;45.532;5.290;2023-12-20T05:52:23;6.00;99.90
24326;DHT22;12448;45.532;5.290;2023-12-20T05:55:08;6.00;99.90
24326;DHT22;12448;45.532;5.290;2023-12-20T05:57:36;6.00;99.90
24326;DHT22;12448;45.532;5.290;2023-12-20T06:00:03;6.00;99.90
24326;DHT22;12448;45.532;5.290;2023-12-20T06:02:29;6.00;99.90
24326;DHT22;12448;45.532;5.290;2023-12-20T06:04:54;6.00;99.90
24326;DHT22;12448;45.532;5.290;2023-12-20T06:07:24;6.00;99.90
24326;DHT22;12448;45.532;5.290;2023-12-20T06:10:09;5.90;99.90
24326;DHT22;12448;45.532;5.290;2023-12-20T06:12:35;5.90;99.90
24326;DHT22;12448;45.532;5.290;2023-12-20T06:15:02;5.90;99.90
24326;DHT22;12448;45.532;5.290;2023-12-20T06:17:31;5.90;99.90
24326;DHT22;12448;45.532;5.290;2023-12-20T06:20:03;5.80;99.90
24326;DHT22;12448;45.532;5.290;2023-12-20T06:22:38;5.90;99.90
24326;DHT22;12448;45.532;5.290;2023-12-20T06:25:28;5.80;99.90
24326;DHT22;12448;45.532;5.290;2023-12-20T06:30:46;5.80;99.90
24326;DHT22;12448;45.532;5.290;2023-12-20T06:33:42;5.80;99.90
24326;DHT22;12448;45.532;5.290;2023-12-20T06:36:14;5.80;99.90
24326;DHT22;12448;45.532;5.290;2023-12-20T06:38:45;5.80;99.90
24326;DHT22;12448;45.532;5.290;2023-12-20T06:41:14;5.80;99.90
24326;DHT22;12448;45.532;5.290;2023-12-20T06:43:41;5.80;99.90
24326;DHT22;12448;45.532;5.290;2023-12-20T06:46:10;5.70;99.90
24326;DHT22;12448;45.532;5.290;2023-12-20T06:48:39;5.70;99.90
24326;DHT22;12448;45.532;5.290;2023-12-20T06:51:12;5.80;99.90
24326;DHT22;12448;45.532;5.290;2023-12-20T06:53:56;5.70;99.90
24326;DHT22;12448;45.532;5.290;2023-12-20T07:02:36;5.50;99.90
24326;DHT22;12448;45.532;5.290;2023-12-20T07:05:32;5.50;99.90
24326;DHT22;12448;45.532;5.290;2023-12-20T07:08:00;5.50;99.90
24326;DHT22;12448;45.532;5.290;2023-12-20T07:10:32;5.50;99.90
24326;DHT22;12448;45.532;5.290;2023-12-20T07:13:05;5.90;99.90
24326;DHT22;12448;45.532;5.290;2023-12-20T07:15:34;5.90;99.90
24326;DHT22;12448;45.532;5.290;2023-12-20T07:18:12;5.50;99.90
24326;DHT22;12448;45.532;5.290;2023-12-20T07:20:44;5.40;99.90
24326;DHT22;12448;45.532;5.290;2023-12-20T07:23:20;5.40;99.90
24326;DHT22;12448;45.532;5.290;2023-12-20T07:25:52;5.40;99.90
24326;DHT22;12448;45.532;5.290;2023-12-20T07:28:18;5.40;99.90
24326;DHT22;12448;45.532;5.290;2023-12-20T07:30:43;5.40;99.90
24326;DHT22;12448;45.532;5.290;2023-12-20T07:33:18;5.40;99.90
24326;DHT22;12448;45.532;5.290;2023-12-20T07:35:50;5.40;99.90
24326;DHT22;12448;45.532;5.290;2023-12-20T07:38:20;5.40;99.90
24326;DHT22;12448;45.532;5.290;2023-12-20T07:40:50;5.40;99.90
24326;DHT22;12448;45.532;5.290;2023-12-20T07:43:31;5.40;99.90
24326;DHT22;12448;45.532;5.290;2023-12-20T07:46:15;5.40;99.90
24326;DHT22;12448;45.532;5.290;2023-12-20T07:48:59;5.50;99.90
24326;DHT22;12448;45.532;5.290;2023-12-20T07:52:35;5.50;99.90
24326;DHT22;12448;45.532;5.290;2023-12-20T07:55:44;5.50;99.90
24326;DHT22;12448;45.532;5.290;2023-12-20T07:58:13;5.50;99.90
24326;DHT22;12448;45.532;5.290;2023-12-20T08:00:47;5.50;99.90
24326;DHT22;12448;45.532;5.290;2023-12-20T08:03:16;5.40;99.90
24326;DHT22;12448;45.532;5.290;2023-12-20T08:05:42;5.40;99.90
24326;DHT22;12448;45.532;5.290;2023-12-20T08:08:14;5.40;99.90
24326;DHT22;12448;45.532;5.290;2023-12-20T08:10:45;5.50;99.90
24326;DHT22;12448;45.532;5.290;2023-12-20T08:13:38;5.50;99.90
24326;DHT22;12448;45.532;5.290;2023-12-20T08:16:17;5.50;99.90
24326;DHT22;12448;45.532;5.290;2023-12-20T08:22:20;5.40;99.90
24326;DHT22;12448;45.532;5.290;2023-12-20T08:24:49;5.40;99.90
24326;DHT22;12448;45.532;5.290;2023-12-20T08:27:33;5.40;99.90
24326;DHT22;12448;45.532;5.290;2023-12-20T08:30:09;5.40;99.90
24326;DHT22;12448;45.532;5.290;2023-12-20T08:36:12;5.40;99.90
24326;DHT22;12448;45.532;5.290;2023-12-20T08:38:43;5.50;99.90
24326;DHT22;12448;45.532;5.290;2023-12-20T08:41:15;5.40;99.90
24326;DHT22;12448;45.532;5.290;2023-12-20T08:43:42;5.40;99.90
24326;DHT22;12448;45.532;5.290;2023-12-20T08:46:11;5.50;99.90
24326;DHT22;12448;45.532;5.290;2023-12-20T08:48:40;5.50;99.90
24326;DHT22;12448;45.532;5.290;2023-12-20T08:51:18;5.40;99.90
24326;DHT22;12448;45.532;5.290;2023-12-20T08:53:55;5.40;99.90
24326;DHT22;12448;45.532;5.290;2023-12-20T08:56:39;5.50;99.90
24326;DHT22;12448;45.532;5.290;2023-12-20T09:01:53;5.50;99.90
24326;DHT22;12448;45.532;5.290;2023-12-20T09:04:23;6.10;99.90
24326;DHT22;12448;45.532;5.290;2023-12-20T09:06:49;5.40;99.90
24326;DHT22;12448;45.532;5.290;2023-12-20T09:09:24;5.20;99.90
24326;DHT22;12448;45.532;5.290;2023-12-20T09:12:21;5.50;99.90
24326;DHT22;12448;45.532;5.290;2023-12-20T09:14:51;5.40;99.90
24326;DHT22;12448;45.532;5.290;2023-12-20T09:17:20;5.70;99.90
24326;DHT22;12448;45.532;5.290;2023-12-20T09:20:33;5.50;99.90
24326;DHT22;12448;45.532;5.290;2023-12-20T09:22:53;5.50;99.90
24326;DHT22;12448;45.532;5.290;2023-12-20T09:25:24;5.50;99.90
24326;DHT22;12448;45.532;5.290;2023-12-20T09:31:55;5.50;99.90
24326;DHT22;12448;45.532;5.290;2023-12-20T09:34:27;5.50;99.90
24326;DHT22;12448;45.532;5.290;2023-12-20T09:36:54;5.50;99.90
24326;DHT22;12448;45.532;5.290;2023-12-20T09:39:24;6.10;99.90
24326;DHT22;12448;45.532;5.290;2023-12-20T09:42:07;5.60;99.90
24326;DHT22;12448;45.532;5.290;2023-12-20T09:44:39;5.50;99.90
24326;DHT22;12448;45.532;5.290;2023-12-20T09:47:16;5.90;99.90
24326;DHT22;12448;45.532;5.290;2023-12-20T09:50:04;5.60;99.90
24326;DHT22;12448;45.532;5.290;2023-12-20T09:52:40;5.60;99.90
24326;DHT22;12448;45.532;5.290;2023-12-20T09:55:58;5.70;99.90
24326;DHT22;12448;45.532;5.290;2023-12-20T09:58:28;6.00;99.90
24326;DHT22;12448;45.532;5.290;2023-12-20T10:01:15;5.70;99.90
24326;DHT22;12448;45.532;5.290;2023-12-20T10:04:01;5.80;99.90
24326;DHT22;12448;45.532;5.290;2023-12-20T10:06:45;5.80;99.90
24326;DHT22;12448;45.532;5.290;2023-12-20T10:09:17;5.90;99.90
24326;DHT22;12448;45.532;5.290;2023-12-20T10:12:21;5.90;99.90
24326;DHT22;12448;45.532;5.290;2023-12-20T10:15:03;5.90;99.90
24326;DHT22;12448;45.532;5.290;2023-12-20T10:17:59;6.00;99.90
24326;DHT22;12448;45.532;5.290;2023-12-20T10:20:34;6.00;99.90
24326;DHT22;12448;45.532;5.290;2023-12-20T10:23:11;6.10;99.90
24326;DHT22;12448;45.532;5.290;2023-12-20T10:25:41;6.10;99.90
24326;DHT22;12448;45.532;5.290;2023-12-20T10:28:21;6.10;99.90
24326;DHT22;12448;45.532;5.290;2023-12-20T10:31:01;5.90;99.90
24326;DHT22;12448;45.532;5.290;2023-12-20T10:33:47;6.20;99.90
24326;DHT22;12448;45.532;5.290;2023-12-20T10:39:08;6.20;99.90
24326;DHT22;12448;45.532;5.290;2023-12-20T10:41:44;5.50;99.90
24326;DHT22;12448;45.532;5.290;2023-12-20T10:44:14;5.90;99.90
24326;DHT22;12448;45.532;5.290;2023-12-20T10:46:44;6.10;99.90
24326;DHT22;12448;45.532;5.290;2023-12-20T10:49:22;6.20;99.90
24326;DHT22;12448;45.532;5.290;2023-12-20T10:52:04;6.20;99.90
24326;DHT22;12448;45.532;5.290;2023-12-20T10:54:39;6.20;99.90
24326;DHT22;12448;45.532;5.290;2023-12-20T10:57:08;6.20;99.90
24326;DHT22;12448;45.532;5.290;2023-12-20T11:02:32;6.20;99.90
24326;DHT22;12448;45.532;5.290;2023-12-20T11:05:20;6.20;99.90
24326;DHT22;12448;45.532;5.290;2023-12-20T11:07:55;6.30;99.90
24326;DHT22;12448;45.532;5.290;2023-12-20T11:14:08;6.30;99.90
24326;DHT22;12448;45.532;5.290;2023-12-20T11:16:38;6.30;99.90
24326;DHT22;12448;45.532;5.290;2023-12-20T11:19:07;6.20;99.90
24326;DHT22;12448;45.532;5.290;2023-12-20T11:21:50;6.20;99.90
24326;DHT22;12448;45.532;5.290;2023-12-20T11:24:21;6.20;99.90
24326;DHT22;12448;45.532;5.290;2023-12-20T11:27:03;6.20;99.90
24326;DHT22;12448;45.532;5.290;2023-12-20T11:29:36;6.20;99.90
24326;DHT22;12448;45.532;5.290;2023-12-20T11:37:38;6.80;99.90
24326;DHT22;12448;45.532;5.290;2023-12-20T11:40:29;6.20;99.90
24326;DHT22;12448;45.532;5.290;2023-12-20T11:46:25;6.20;99.90
24326;DHT22;12448;45.532;5.290;2023-12-20T11:48:54;6.20;99.90
24326;DHT22;12448;45.532;5.290;2023-12-20T11:51:23;6.30;99.90
24326;DHT22;12448;45.532;5.290;2023-12-20T11:53:54;6.20;99.90
24326;DHT22;12448;45.532;5.290;2023-12-20T11:56:48;6.30;99.90
24326;DHT22;12448;45.532;5.290;2023-12-20T11:59:20;6.30;99.90
24326;DHT22;12448;45.532;5.290;2023-12-20T12:02:01;5.80;99.90
24326;DHT22;12448;45.532;5.290;2023-12-20T12:05:09;6.70;99.90
24326;DHT22;12448;45.532;5.290;2023-12-20T12:08:07;5.70;99.90
24326;DHT22;12448;45.532;5.290;2023-12-20T12:10:52;6.30;99.90
24326;DHT22;12448;45.532;5.290;2023-12-20T12:13:30;6.30;99.90
24326;DHT22;12448;45.532;5.290;2023-12-20T12:16:07;6.40;99.90
24326;DHT22;12448;45.532;5.290;2023-12-20T12:18:45;6.40;99.90
24326;DHT22;12448;45.532;5.290;2023-12-20T12:21:25;6.40;99.90
24326;DHT22;12448;45.532;5.290;2023-12-20T12:27:16;6.50;99.90
24326;DHT22;12448;45.532;5.290;2023-12-20T12:30:06;6.60;99.90
24326;DHT22;12448;45.532;5.290;2023-12-20T12:32:39;7.10;99.90
24326;DHT22;12448;45.532;5.290;2023-12-20T12:35:10;6.90;99.90
24326;DHT22;12448;45.532;5.290;2023-12-20T12:37:43;6.90;99.90
24326;DHT22;12448;45.532;5.290;2023-12-20T12:40:27;6.90;99.90
24326;DHT22;12448;45.532;5.290;2023-12-20T12:42:56;6.90;99.90
24326;DHT22;12448;45.532;5.290;2023-12-20T12:45:38;7.10;99.90
24326;DHT22;12448;45.532;5.290;2023-12-20T12:48:05;6.80;99.90
24326;DHT22;12448;45.532;5.290;2023-12-20T12:50:40;6.80;99.90
24326;DHT22;12448;45.532;5.290;2023-12-20T12:53:30;6.80;99.90
24326;DHT22;12448;45.532;5.290;2023-12-20T12:55:56;6.80;99.90
24326;DHT22;12448;45.532;5.290;2023-12-20T12:58:41;6.90;99.90
24326;DHT22;12448;45.532;5.290;2023-12-20T13:01:18;6.90;99.90
24326;DHT22;12448;45.532;5.290;2023-12-20T13:04:32;6.90;99.90
24326;DHT22;12448;45.532;5.290;2023-12-20T13:07:24;6.80;99.90
24326;DHT22;12448;45.532;5.290;2023-12-20T13:09:53;7.00;99.90
24326;DHT22;12448;45.532;5.290;2023-12-20T13:13:28;6.80;99.90
24326;DHT22;12448;45.532;5.290;2023-12-20T13:36:08;6.60;99.90
24326;DHT22;12448;45.532;5.290;2023-12-20T13:38:41;7.20;99.90
24326;DHT22;12448;45.532;5.290;2023-12-20T13:41:34;6.70;99.90
24326;DHT22;12448;45.532;5.290;2023-12-20T13:44:06;6.70;99.90
24326;DHT22;12448;45.532;5.290;2023-12-20T13:46:41;6.70;99.90
24326;DHT22;12448;45.532;5.290;2023-12-20T13:52:25;6.70;99.90
24326;DHT22;12448;45.532;5.290;2023-12-20T13:55:11;6.70;99.90
24326;DHT22;12448;45.532;5.290;2023-12-20T14:01:04;6.60;99.90
24326;DHT22;12448;45.532;5.290;2023-12-20T14:03:33;6.50;99.90
24326;DHT22;12448;45.532;5.290;2023-12-20T14:06:02;6.50;99.90
24326;DHT22;12448;45.532;5.290;2023-12-20T14:08:34;6.50;99.90
24326;DHT22;12448;45.532;5.290;2023-12-20T14:11:04;6.50;99.90
24326;DHT22;12448;45.532;5.290;2023-12-20T14:13:30;6.50;99.90
24326;DHT22;12448;45.532;5.290;2023-12-20T14:16:04;6.50;99.90
24326;DHT22;12448;45.532;5.290;2023-12-20T14:18:30;6.40;99.90
24326;DHT22;12448;45.532;5.290;2023-12-20T14:21:14;6.40;99.90
24326;DHT22;12448;45.532;5.290;2023-12-20T14:24:08;6.50;99.90
24326;DHT22;12448;45.532;5.290;2023-12-20T14:26:45;6.40;99.90
24326;DHT22;12448;45.532;5.290;2023-12-20T14:29:13;6.40;99.90
24326;DHT22;12448;45.532;5.290;2023-12-20T14:31:39;6.40;99.90
24326;DHT22;12448;45.532;5.290;2023-12-20T14:34:06;6.40;99.90
24326;DHT22;12448;45.532;5.290;2023-12-20T14:36:32;6.40;99.90
24326;DHT22;12448;45.532;5.290;2023-12-20T14:39:04;6.50;99.90
24326;DHT22;12448;45.532;5.290;2023-12-20T14:42:03;6.50;99.90
24326;DHT22;12448;45.532;5.290;2023-12-20T14:45:12;7.00;99.90
24326;DHT22;12448;45.532;5.290;2023-12-20T14:47:58;6.50;99.90
24326;DHT22;12448;45.532;5.290;2023-12-20T14:50:27;6.40;99.90
24326;DHT22;12448;45.532;5.290;2023-12-20T14:53:17;6.40;99.90
24326;DHT22;12448;45.532;5.290;2023-12-20T14:55:55;6.40;99.90
24326;DHT22;12448;45.532;5.290;2023-12-20T14:58:29;6.40;99.90
24326;DHT22;12448;45.532;5.290;2023-12-20T15:01:20;6.30;99.90
24326;DHT22;12448;45.532;5.290;2023-12-20T15:03:52;6.40;99.90
24326;DHT22;12448;45.532;5.290;2023-12-20T15:06:18;6.40;99.90
24326;DHT22;12448;45.532;5.290;2023-12-20T15:08:55;6.50;99.90
24326;DHT22;12448;45.532;5.290;2023-12-20T15:11:50;6.40;99.90
24326;DHT22;12448;45.532;5.290;2023-12-20T15:14:21;6.40;99.90
24326;DHT22;12448;45.532;5.290;2023-12-20T15:16:53;6.40;99.90
24326;DHT22;12448;45.532;5.290;2023-12-20T15:19:30;6.40;99.90
24326;DHT22;12448;45.532;5.290;2023-12-20T15:21:59;6.50;99.90
24326;DHT22;12448;45.532;5.290;2023-12-20T15:24:32;6.40;99.90
24326;DHT22;12448;45.532;5.290;2023-12-20T15:27:06;6.40;99.90
24326;DHT22;12448;45.532;5.290;2023-12-20T15:29:34;6.40;99.90
24326;DHT22;12448;45.532;5.290;2023-12-20T15:32:03;6.40;99.90
24326;DHT22;12448;45.532;5.290;2023-12-20T15:34:43;6.40;99.90
24326;DHT22;12448;45.532;5.290;2023-12-20T15:37:09;6.30;99.90
24326;DHT22;12448;45.532;5.290;2023-12-20T15:39:35;6.40;99.90
24326;DHT22;12448;45.532;5.290;2023-12-20T15:42:01;6.40;99.90
24326;DHT22;12448;45.532;5.290;2023-12-20T15:44:27;6.30;99.90
24326;DHT22;12448;45.532;5.290;2023-12-20T15:47:19;6.40;99.90
24326;DHT22;12448;45.532;5.290;2023-12-20T15:49:46;6.30;99.90
24326;DHT22;12448;45.532;5.290;2023-12-20T15:52:15;6.30;99.90
24326;DHT22;12448;45.532;5.290;2023-12-20T15:54:44;6.30;99.90
24326;DHT22;12448;45.532;5.290;2023-12-20T15:57:30;6.30;99.90
24326;DHT22;12448;45.532;5.290;2023-12-20T16:00:12;6.30;99.90
24326;DHT22;12448;45.532;5.290;2023-12-20T16:02:46;6.30;99.90
24326;DHT22;12448;45.532;5.290;2023-12-20T16:05:32;6.20;99.90
24326;DHT22;12448;45.532;5.290;2023-12-20T16:07:58;6.20;99.90
24326;DHT22;12448;45.532;5.290;2023-12-20T16:10:31;6.30;99.90
24326;DHT22;12448;45.532;5.290;2023-12-20T16:13:00;6.30;99.90
24326;DHT22;12448;45.532;5.290;2023-12-20T16:15:28;6.30;99.90
24326;DHT22;12448;45.532;5.290;2023-12-20T16:18:00;6.30;99.90
24326;DHT22;12448;45.532;5.290;2023-12-20T16:20:29;6.30;99.90
24326;DHT22;12448;45.532;5.290;2023-12-20T16:23:00;6.20;99.90
24326;DHT22;12448;45.532;5.290;2023-12-20T16:25:34;6.30;99.90
24326;DHT22;12448;45.532;5.290;2023-12-20T16:28:04;6.20;99.90
24326;DHT22;12448;45.532;5.290;2023-12-20T16:30:32;6.10;99.90
24326;DHT22;12448;45.532;5.290;2023-12-20T16:33:08;6.00;99.90
24326;DHT22;12448;45.532;5.290;2023-12-20T16:35:37;5.80;99.90
24326;DHT22;12448;45.532;5.290;2023-12-20T16:38:09;5.90;99.90
24326;DHT22;12448;45.532;5.290;2023-12-20T16:40:37;5.90;99.90
24326;DHT22;12448;45.532;5.290;2023-12-20T16:43:06;5.80;99.90
24326;DHT22;12448;45.532;5.290;2023-12-20T16:45:35;5.70;99.90
24326;DHT22;12448;45.532;5.290;2023-12-20T16:48:10;5.80;99.90
24326;DHT22;12448;45.532;5.290;2023-12-20T16:50:36;5.70;99.90
24326;DHT22;12448;45.532;5.290;2023-12-20T16:57:14;5.70;99.90
24326;DHT22;12448;45.532;5.290;2023-12-20T16:59:54;5.80;99.90
24326;DHT22;12448;45.532;5.290;2023-12-20T17:02:28;5.70;99.90
24326;DHT22;12448;45.532;5.290;2023-12-20T17:05:11;5.70;99.90
24326;DHT22;12448;45.532;5.290;2023-12-20T17:07:45;5.60;99.90
24326;DHT22;12448;45.532;5.290;2023-12-20T17:10:17;5.50;99.90
24326;DHT22;12448;45.532;5.290;2023-12-20T17:12:49;5.50;99.90
24326;DHT22;12448;45.532;5.290;2023-12-20T17:15:15;5.40;99.90
24326;DHT22;12448;45.532;5.290;2023-12-20T17:17:43;5.40;99.90
24326;DHT22;12448;45.532;5.290;2023-12-20T17:20:09;5.40;99.90
24326;DHT22;12448;45.532;5.290;2023-12-20T17:22:44;5.40;99.90
24326;DHT22;12448;45.532;5.290;2023-12-20T17:25:43;5.40;99.90
24326;DHT22;12448;45.532;5.290;2023-12-20T17:29:06;5.40;99.90
24326;DHT22;12448;45.532;5.290;2023-12-20T17:31:27;5.40;99.90
24326;DHT22;12448;45.532;5.290;2023-12-20T17:33:57;5.40;99.90
24326;DHT22;12448;45.532;5.290;2023-12-20T17:36:29;5.30;99.90
24326;DHT22;12448;45.532;5.290;2023-12-20T17:39:05;5.30;99.90
24326;DHT22;12448;45.532;5.290;2023-12-20T17:41:31;5.40;99.90
24326;DHT22;12448;45.532;5.290;2023-12-20T17:44:03;5.30;99.90
24326;DHT22;12448;45.532;5.290;2023-12-20T17:46:35;5.40;99.90
24326;DHT22;12448;45.532;5.290;2023-12-20T17:49:10;5.40;99.90
24326;DHT22;12448;45.532;5.290;2023-12-20T17:51:54;5.50;99.90
24326;DHT22;12448;45.532;5.290;2023-12-20T17:54:36;5.50;99.90
24326;DHT22;12448;45.532;5.290;2023-12-20T17:57:10;5.60;99.90
24326;DHT22;12448;45.532;5.290;2023-12-20T17:59:42;5.70;99.90
24326;DHT22;12448;45.532;5.290;2023-12-20T18:02:20;5.70;99.90
24326;DHT22;12448;45.532;5.290;2023-12-20T18:04:58;5.80;99.90
24326;DHT22;12448;45.532;5.290;2023-12-20T18:07:24;5.70;99.90
24326;DHT22;12448;45.532;5.290;2023-12-20T18:09:53;5.60;99.90
24326;DHT22;12448;45.532;5.290;2023-12-20T18:12:21;5.50;99.90